Terminal Aerodrome Forecast
Issued by NWS Cleveland, OH

Home | Current Version | Previous Version | Graphics & Text | Print | Product List | Glossary On
Versions: 1 2 3 4 5 6 7 8 9 10 11 12 13 14 15 16 17 18 19
876
FTUS41 KCLE 191402 AAA
TAFERI
TAF AMD
KERI 191402Z 1914/2012 30015G25KT P6SM VCSH OVC035
      TEMPO 1914/1918 OVC025
     FM192000 28015G25KT P6SM -SHRASN OVC025
     FM200400 28010G20KT 3SM -SHSN OVC025=

USA.gov is the U.S. government's official web portal to all federal, state and local government web resources and services.